createdAt,value
2022-11-27T00:00:03.591Z,1.00
2022-11-27T00:01:03.538Z,1.00
2022-11-27T00:02:03.549Z,1.00
2022-11-27T00:03:03.635Z,1.00
2022-11-27T00:04:02.641Z,1.00
2022-11-27T00:05:02.703Z,1.00
2022-11-27T00:06:02.760Z,1.00
2022-11-27T00:07:02.914Z,1.00
2022-11-27T00:08:02.808Z,1.00
2022-11-27T00:09:02.827Z,0.90
2022-11-27T00:10:02.813Z,1.00
2022-11-27T00:11:02.793Z,0.90
2022-11-27T00:12:02.726Z,0.90
2022-11-27T00:13:02.775Z,0.90
2022-11-27T00:14:02.782Z,0.90
2022-11-27T00:15:02.727Z,0.90
2022-11-27T00:16:02.702Z,0.90
2022-11-27T00:17:02.775Z,0.90
2022-11-27T00:18:02.936Z,0.80
2022-11-27T00:19:02.848Z,0.80
2022-11-27T00:20:02.958Z,0.80
2022-11-27T00:21:02.929Z,0.80
2022-11-27T00:22:03.013Z,0.80
2022-11-27T00:23:02.948Z,0.80
2022-11-27T00:24:02.899Z,0.80
2022-11-27T00:25:02.855Z,0.80
2022-11-27T00:26:02.867Z,0.80
2022-11-27T00:27:02.789Z,0.80
2022-11-27T00:28:02.825Z,0.70
2022-11-27T00:29:02.962Z,0.70
2022-11-27T00:30:03.010Z,0.70
2022-11-27T00:31:03.021Z,0.70
2022-11-27T00:32:02.989Z,0.70
2022-11-27T00:33:03.001Z,0.80
2022-11-27T00:34:02.942Z,0.70
2022-11-27T00:35:03.039Z,0.70
2022-11-27T00:36:03.036Z,0.70
2022-11-27T00:37:03.012Z,0.70
2022-11-27T00:38:02.847Z,0.70
2022-11-27T00:39:02.839Z,0.70
2022-11-27T00:40:02.913Z,0.70
2022-11-27T00:41:03.108Z,0.70
2022-11-27T00:42:02.879Z,0.70
2022-11-27T00:43:02.844Z,0.70
2022-11-27T00:44:02.837Z,0.70
2022-11-27T00:45:02.733Z,0.70
2022-11-27T00:46:02.799Z,0.70
2022-11-27T00:47:02.716Z,0.70
2022-11-27T00:48:02.797Z,0.60
2022-11-27T00:49:02.775Z,0.60
2022-11-27T00:50:02.814Z,0.60
2022-11-27T00:51:02.735Z,0.60
2022-11-27T00:52:02.777Z,0.60
2022-11-27T00:53:02.716Z,0.60
2022-11-27T00:54:02.771Z,0.60
2022-11-27T00:55:02.668Z,0.60
2022-11-27T00:56:02.656Z,0.60
2022-11-27T00:57:02.605Z,0.60
2022-11-27T00:58:02.715Z,0.60
2022-11-27T00:59:02.572Z,0.60
2022-11-27T01:00:02.584Z,0.60
2022-11-27T01:01:02.848Z,0.60
2022-11-27T01:02:02.790Z,0.60
2022-11-27T01:03:03.274Z,0.60
2022-11-27T01:04:03.155Z,0.60
2022-11-27T01:05:03.098Z,0.60
2022-11-27T01:06:02.986Z,0.50
2022-11-27T01:07:02.959Z,0.60
2022-11-27T01:08:02.973Z,0.60
2022-11-27T01:09:02.862Z,0.60
2022-11-27T01:10:03.240Z,0.50
2022-11-27T01:11:03.083Z,0.50
2022-11-27T01:12:03.145Z,0.50
2022-11-27T01:13:03.206Z,0.50
2022-11-27T01:14:03.066Z,0.50
2022-11-27T01:15:03.045Z,0.50
2022-11-27T01:16:03.006Z,0.50
2022-11-27T01:17:02.954Z,0.50
2022-11-27T01:18:02.841Z,0.50
2022-11-27T01:19:02.860Z,0.50
2022-11-27T01:20:02.873Z,0.50
2022-11-27T01:21:02.786Z,0.50
2022-11-27T01:22:02.684Z,0.50
2022-11-27T01:23:03.581Z,0.50
2022-11-27T01:24:03.481Z,0.50
2022-11-27T01:25:03.554Z,0.50
2022-11-27T01:26:02.964Z,0.50
2022-11-27T01:27:02.789Z,0.50
2022-11-27T01:28:02.874Z,0.50
2022-11-27T01:29:02.748Z,0.50
2022-11-27T01:30:02.786Z,0.50
2022-11-27T01:31:02.813Z,0.50
2022-11-27T01:32:02.774Z,0.50
2022-11-27T01:33:02.734Z,0.50
2022-11-27T01:34:02.838Z,0.50
2022-11-27T01:35:02.706Z,0.50
2022-11-27T01:36:02.751Z,0.50
2022-11-27T01:37:02.741Z,0.40
2022-11-27T01:38:02.687Z,0.50
2022-11-27T01:39:02.668Z,0.50
2022-11-27T01:40:03.528Z,0.50
2022-11-27T01:41:03.478Z,0.50
2022-11-27T01:42:03.372Z,0.50
2022-11-27T01:43:03.329Z,0.50
2022-11-27T01:44:03.281Z,0.50
2022-11-27T01:45:03.215Z,0.50
2022-11-27T01:46:03.168Z,0.50
2022-11-27T01:47:03.070Z,0.50
2022-11-27T01:48:03.054Z,0.50
2022-11-27T01:49:02.958Z,0.50
2022-11-27T01:50:02.838Z,0.50
2022-11-27T01:51:02.824Z,0.40
2022-11-27T01:52:02.779Z,0.40
2022-11-27T01:53:02.814Z,0.50
2022-11-27T01:54:02.849Z,0.40
2022-11-27T01:55:02.875Z,0.40
2022-11-27T01:56:02.896Z,0.40
2022-11-27T01:57:02.788Z,0.40
2022-11-27T01:58:02.903Z,0.40
2022-11-27T01:59:02.798Z,0.40
2022-11-27T02:00:02.835Z,0.40
2022-11-27T02:01:02.755Z,0.40
2022-11-27T02:02:02.773Z,0.40
2022-11-27T02:03:02.725Z,0.40
2022-11-27T02:04:03.548Z,0.40
2022-11-27T02:05:03.481Z,0.40
2022-11-27T02:06:03.386Z,0.40
2022-11-27T02:07:03.461Z,0.40
2022-11-27T02:08:03.435Z,0.40
2022-11-27T02:09:03.303Z,0.40
2022-11-27T02:10:03.215Z,0.40
2022-11-27T02:11:03.258Z,0.40
2022-11-27T02:12:03.285Z,0.40
2022-11-27T02:13:03.249Z,0.40
2022-11-27T02:14:03.145Z,0.30
2022-11-27T02:15:03.033Z,0.40
2022-11-27T02:16:03.009Z,0.30
2022-11-27T02:17:03.051Z,0.30
2022-11-27T02:19:03.295Z,0.30
2022-11-27T02:20:03.194Z,0.30
2022-11-27T02:21:03.206Z,0.30
2022-11-27T02:22:03.195Z,0.30
2022-11-27T02:23:03.170Z,0.30
2022-11-27T02:24:03.125Z,0.30
2022-11-27T02:25:03.112Z,0.30
2022-11-27T02:26:03.085Z,0.30
2022-11-27T02:27:03.017Z,0.30
2022-11-27T02:28:02.966Z,0.30
2022-11-27T02:29:02.900Z,0.30
2022-11-27T02:30:02.829Z,0.30
2022-11-27T02:31:02.879Z,0.30
2022-11-27T02:32:02.686Z,0.30
2022-11-27T02:33:02.641Z,0.30
2022-11-27T02:34:03.574Z,0.30
2022-11-27T02:35:03.498Z,0.30
2022-11-27T02:36:03.456Z,0.30
2022-11-27T02:37:03.378Z,0.30
2022-11-27T02:38:03.262Z,0.30
2022-11-27T02:39:03.325Z,0.30
2022-11-27T02:40:03.176Z,0.30
2022-11-27T02:41:03.166Z,0.30
2022-11-27T02:42:03.174Z,0.30
2022-11-27T02:43:03.177Z,0.30
2022-11-27T02:44:03.103Z,0.30
2022-11-27T02:45:03.159Z,0.30
2022-11-27T02:46:03.195Z,0.30
2022-11-27T02:47:03.020Z,0.30
2022-11-27T02:48:02.952Z,0.30
2022-11-27T02:49:02.916Z,0.20
2022-11-27T02:50:02.829Z,0.20
2022-11-27T02:51:02.848Z,0.20
2022-11-27T02:52:02.784Z,0.20
2022-11-27T02:53:02.751Z,0.20
2022-11-27T02:54:02.636Z,0.20
2022-11-27T02:55:03.517Z,0.20
2022-11-27T02:56:03.460Z,0.20
2022-11-27T02:57:03.426Z,0.20
2022-11-27T02:58:03.441Z,0.10
2022-11-27T02:59:03.386Z,0.20
2022-11-27T03:00:03.392Z,0.10
2022-11-27T03:01:03.285Z,0.10
2022-11-27T03:02:03.253Z,0.10
2022-11-27T03:03:03.288Z,0.10
2022-11-27T03:04:03.291Z,0.10
2022-11-27T03:05:03.209Z,0.10
2022-11-27T03:06:03.242Z,0.10
2022-11-27T03:07:03.241Z,0.10
2022-11-27T03:08:03.164Z,0.10
2022-11-27T03:09:03.205Z,0.10
2022-11-27T03:10:03.206Z,0.10
2022-11-27T03:11:03.201Z,0.10
2022-11-27T03:12:03.125Z,0.10
2022-11-27T03:13:03.090Z,0.10
2022-11-27T03:14:02.967Z,0.10
2022-11-27T03:15:03.022Z,0.10
2022-11-27T03:16:02.951Z,0.10
2022-11-27T03:17:02.926Z,0.10
2022-11-27T03:18:02.932Z,0.10
2022-11-27T03:19:02.904Z,0.10
2022-11-27T03:20:02.999Z,0.10
2022-11-27T03:21:02.896Z,0.10
2022-11-27T03:22:02.828Z,0.10
2022-11-27T03:23:03.036Z,0.00
2022-11-27T03:24:02.920Z,0.00
2022-11-27T03:25:02.901Z,0.00
2022-11-27T03:26:02.977Z,0.00
2022-11-27T03:27:03.183Z,0.00
2022-11-27T03:28:03.216Z,0.00
2022-11-27T03:29:03.144Z,0.00
2022-11-27T03:30:03.028Z,0.00
2022-11-27T03:31:03.150Z,0.00
2022-11-27T03:32:02.858Z,0.00
2022-11-27T03:33:02.862Z,0.00
2022-11-27T03:34:02.856Z,0.00
2022-11-27T03:35:03.049Z,0.00
2022-11-27T03:36:02.914Z,0.00
2022-11-27T03:37:02.905Z,0.00
2022-11-27T03:38:02.886Z,0.00
2022-11-27T03:39:02.768Z,0.00
2022-11-27T03:40:02.687Z,0.00
2022-11-27T03:41:02.654Z,-0.10
2022-11-27T03:42:02.687Z,-0.10
2022-11-27T03:43:02.608Z,-0.10
2022-11-27T03:44:02.599Z,-0.10
2022-11-27T03:45:03.541Z,-0.10
2022-11-27T03:46:03.553Z,-0.10
2022-11-27T03:47:03.475Z,-0.10
2022-11-27T03:48:03.393Z,-0.10
2022-11-27T03:49:03.323Z,-0.10
2022-11-27T03:50:03.269Z,-0.10
2022-11-27T03:51:03.199Z,-0.10
2022-11-27T03:52:03.112Z,-0.10
2022-11-27T03:53:02.948Z,-0.10
2022-11-27T03:54:02.860Z,-0.10
2022-11-27T03:55:02.910Z,-0.10
2022-11-27T03:56:06.896Z,-0.10
2022-11-27T03:57:02.772Z,-0.20
2022-11-27T03:58:02.804Z,-0.10
2022-11-27T03:59:02.754Z,-0.20
2022-11-27T04:00:02.710Z,-0.20
2022-11-27T04:01:02.742Z,-0.20
2022-11-27T04:02:02.676Z,-0.20
2022-11-27T04:03:02.586Z,-0.20
2022-11-27T04:04:03.574Z,-0.20
2022-11-27T04:05:03.364Z,-0.20
2022-11-27T04:06:03.397Z,-0.20
2022-11-27T04:07:03.350Z,-0.20
2022-11-27T04:08:03.461Z,-0.20
2022-11-27T04:09:03.292Z,-0.20
2022-11-27T04:10:02.991Z,-0.20
2022-11-27T04:11:03.020Z,-0.20
2022-11-27T04:12:02.968Z,-0.20
2022-11-27T04:13:02.918Z,-0.20
2022-11-27T04:14:03.001Z,-0.20
2022-11-27T04:15:02.870Z,-0.20
2022-11-27T04:16:02.849Z,-0.20
2022-11-27T04:17:02.824Z,-0.20
2022-11-27T04:18:02.759Z,-0.20
2022-11-27T04:19:02.867Z,-0.20
2022-11-27T04:20:02.721Z,-0.20
2022-11-27T04:21:02.677Z,-0.20
2022-11-27T04:22:02.609Z,-0.20
2022-11-27T04:23:03.473Z,-0.20
2022-11-27T04:24:03.420Z,-0.20
2022-11-27T04:25:03.386Z,-0.20
2022-11-27T04:26:03.426Z,-0.20
2022-11-27T04:27:03.279Z,-0.10
2022-11-27T04:28:03.292Z,-0.10
2022-11-27T04:29:03.192Z,-0.10
2022-11-27T04:30:03.108Z,-0.10
2022-11-27T04:31:03.011Z,-0.10
2022-11-27T04:32:02.969Z,-0.10
2022-11-27T04:33:03.097Z,-0.20
2022-11-27T04:34:03.148Z,-0.10
2022-11-27T04:35:03.109Z,-0.20
2022-11-27T04:36:03.061Z,-0.20
2022-11-27T04:37:02.889Z,-0.20
2022-11-27T04:38:03.099Z,-0.20
2022-11-27T04:39:03.009Z,-0.10
2022-11-27T04:40:02.957Z,-0.10
2022-11-27T04:41:02.853Z,-0.10
2022-11-27T04:42:02.844Z,-0.20
2022-11-27T04:43:02.976Z,-0.20
2022-11-27T04:44:02.992Z,-0.20
2022-11-27T04:45:02.999Z,-0.10
2022-11-27T04:46:02.920Z,-0.20
2022-11-27T04:47:02.977Z,-0.20
2022-11-27T04:48:02.844Z,-0.20
2022-11-27T04:49:02.897Z,-0.20
2022-11-27T04:50:02.941Z,-0.20
2022-11-27T04:51:02.857Z,-0.20
2022-11-27T04:52:02.863Z,-0.20
2022-11-27T04:53:02.839Z,-0.20
2022-11-27T04:54:02.709Z,-0.20
2022-11-27T04:55:02.771Z,-0.20
2022-11-27T04:56:02.720Z,-0.20
2022-11-27T04:57:02.714Z,-0.20
2022-11-27T04:58:03.560Z,-0.20
2022-11-27T04:59:03.530Z,-0.30
2022-11-27T05:00:03.508Z,-0.20
2022-11-27T05:01:03.618Z,-0.20
2022-11-27T05:02:03.550Z,-0.20
2022-11-27T05:03:03.472Z,-0.20
2022-11-27T05:04:03.344Z,-0.20
2022-11-27T05:05:03.360Z,-0.20
2022-11-27T05:06:03.345Z,-0.20
2022-11-27T05:07:03.297Z,-0.20
2022-11-27T05:08:03.199Z,-0.20
2022-11-27T05:09:03.091Z,-0.20
2022-11-27T05:10:03.015Z,-0.20
2022-11-27T05:11:02.991Z,-0.20
2022-11-27T05:12:03.060Z,-0.20
2022-11-27T05:13:02.969Z,-0.20
2022-11-27T05:14:02.983Z,-0.20
2022-11-27T05:15:04.556Z,-0.20
2022-11-27T05:16:02.932Z,-0.20
2022-11-27T05:17:02.761Z,-0.20
2022-11-27T05:18:02.729Z,-0.20
2022-11-27T05:19:02.639Z,-0.20
2022-11-27T05:20:02.860Z,-0.20
2022-11-27T05:21:02.928Z,-0.20
2022-11-27T05:22:02.810Z,-0.20
2022-11-27T05:23:02.944Z,-0.20
2022-11-27T05:24:03.095Z,-0.20
2022-11-27T05:25:03.057Z,-0.20
2022-11-27T05:26:03.035Z,-0.20
2022-11-27T05:27:02.986Z,-0.30
2022-11-27T05:28:02.934Z,-0.20
2022-11-27T05:29:02.835Z,-0.20
2022-11-27T05:30:02.783Z,-0.30
2022-11-27T05:31:02.753Z,-0.20
2022-11-27T05:32:02.864Z,-0.20
2022-11-27T05:33:02.658Z,-0.20
2022-11-27T05:34:02.663Z,-0.20
2022-11-27T05:35:02.569Z,-0.30
2022-11-27T05:36:03.522Z,-0.20
2022-11-27T05:37:02.624Z,-0.20
2022-11-27T05:38:03.526Z,-0.30
2022-11-27T05:39:03.429Z,-0.20
2022-11-27T05:40:03.180Z,-0.20
2022-11-27T05:41:03.152Z,-0.20
2022-11-27T05:42:03.087Z,-0.20
2022-11-27T05:43:03.097Z,-0.20
2022-11-27T05:44:03.110Z,-0.20
2022-11-27T05:45:03.067Z,-0.20
2022-11-27T05:46:03.047Z,-0.20
2022-11-27T05:47:03.143Z,-0.20
2022-11-27T05:48:03.019Z,-0.20
2022-11-27T05:49:02.863Z,-0.20
2022-11-27T05:50:02.738Z,-0.20
2022-11-27T05:51:02.780Z,-0.20
2022-11-27T05:52:02.809Z,-0.20
2022-11-27T05:53:02.864Z,-0.30
2022-11-27T05:54:02.895Z,-0.30
2022-11-27T05:55:02.825Z,-0.30
2022-11-27T05:56:02.918Z,-0.30
2022-11-27T05:57:02.796Z,-0.30
2022-11-27T05:58:02.675Z,-0.30
2022-11-27T05:59:02.580Z,-0.30
2022-11-27T06:00:03.494Z,-0.30
2022-11-27T06:01:03.397Z,-0.30
2022-11-27T06:02:03.439Z,-0.30
2022-11-27T06:03:03.587Z,-0.30
2022-11-27T06:04:03.476Z,-0.40
2022-11-27T06:05:03.382Z,-0.40
2022-11-27T06:06:03.381Z,-0.40
2022-11-27T06:07:03.293Z,-0.40
2022-11-27T06:08:03.196Z,-0.40
2022-11-27T06:09:05.744Z,-0.40
2022-11-27T06:10:03.285Z,-0.40
2022-11-27T06:11:03.170Z,-0.40
2022-11-27T06:12:03.012Z,-0.40
2022-11-27T06:13:02.941Z,-0.40
2022-11-27T06:14:02.927Z,-0.40
2022-11-27T06:15:02.965Z,-0.40
2022-11-27T06:16:02.822Z,-0.40
2022-11-27T06:17:02.932Z,-0.50
2022-11-27T06:18:03.196Z,-0.50
2022-11-27T06:19:02.831Z,-0.50
2022-11-27T06:20:02.940Z,-0.50
2022-11-27T06:21:02.875Z,-0.50
2022-11-27T06:22:02.756Z,-0.50
2022-11-27T06:23:02.740Z,-0.50
2022-11-27T06:24:02.870Z,-0.50
2022-11-27T06:25:02.830Z,-0.50
2022-11-27T06:26:03.235Z,-0.50
2022-11-27T06:27:03.236Z,-0.50
2022-11-27T06:28:03.168Z,-0.50
2022-11-27T06:29:03.365Z,-0.50
2022-11-27T06:30:03.332Z,-0.50
2022-11-27T06:31:03.238Z,-0.50
2022-11-27T06:32:03.166Z,-0.50
2022-11-27T06:33:03.280Z,-0.50
2022-11-27T06:34:03.149Z,-0.50
2022-11-27T06:35:03.145Z,-0.60
2022-11-27T06:36:03.132Z,-0.60
2022-11-27T06:37:03.230Z,-0.60
2022-11-27T06:38:02.932Z,-0.60
2022-11-27T06:39:02.873Z,-0.60
2022-11-27T06:40:02.867Z,-0.60
2022-11-27T06:41:02.808Z,-0.60
2022-11-27T06:42:02.687Z,-0.60
2022-11-27T06:43:03.575Z,-0.60
2022-11-27T06:44:03.577Z,-0.60
2022-11-27T06:45:03.459Z,-0.60
2022-11-27T06:46:03.605Z,-0.60
2022-11-27T06:47:03.428Z,-0.70
2022-11-27T06:48:03.414Z,-0.60
2022-11-27T06:49:03.387Z,-0.70
2022-11-27T06:50:03.295Z,-0.70
2022-11-27T06:51:03.301Z,-0.70
2022-11-27T06:52:03.193Z,-0.70
2022-11-27T06:53:03.193Z,-0.70
2022-11-27T06:54:03.105Z,-0.70
2022-11-27T06:55:02.920Z,-0.60
2022-11-27T06:56:02.907Z,-0.70
2022-11-27T06:57:02.899Z,-0.70
2022-11-27T06:58:02.911Z,-0.60
2022-11-27T06:59:02.795Z,-0.70
2022-11-27T07:00:02.948Z,-0.60
2022-11-27T07:01:02.999Z,-0.70
2022-11-27T07:02:02.864Z,-0.70
2022-11-27T07:03:02.794Z,-0.70
2022-11-27T07:04:03.393Z,-0.60
2022-11-27T07:05:03.405Z,-0.70
2022-11-27T07:06:03.456Z,-0.60
2022-11-27T07:07:03.371Z,-0.70
2022-11-27T07:08:03.433Z,-0.70
2022-11-27T07:09:03.467Z,-0.70
2022-11-27T07:10:03.383Z,-0.70
2022-11-27T07:11:03.279Z,-0.70
2022-11-27T07:12:03.213Z,-0.60
2022-11-27T07:13:03.221Z,-0.60
2022-11-27T07:14:03.116Z,-0.60
2022-11-27T07:15:04.465Z,-0.60
2022-11-27T07:16:03.080Z,-0.60
2022-11-27T07:17:03.171Z,-0.60
2022-11-27T07:18:03.082Z,-0.60
2022-11-27T07:19:02.970Z,-0.60
2022-11-27T07:20:02.951Z,-0.60
2022-11-27T07:21:02.907Z,-0.60
2022-11-27T07:22:02.837Z,-0.60
2022-11-27T07:23:02.983Z,-0.60
2022-11-27T07:24:02.939Z,-0.60
2022-11-27T07:25:03.000Z,-0.60
2022-11-27T07:26:02.899Z,-0.60
2022-11-27T07:27:02.863Z,-0.50
2022-11-27T07:28:02.734Z,-0.50
2022-11-27T07:29:02.839Z,-0.50
2022-11-27T07:30:02.865Z,-0.50
2022-11-27T07:31:02.955Z,-0.50
2022-11-27T07:32:03.096Z,-0.50
2022-11-27T07:33:03.165Z,-0.50
2022-11-27T07:34:05.787Z,-0.50
2022-11-27T07:35:03.310Z,-0.50
2022-11-27T07:36:03.267Z,-0.50
2022-11-27T07:37:03.270Z,-0.50
2022-11-27T07:38:03.345Z,-0.50
2022-11-27T07:39:03.287Z,-0.50
2022-11-27T07:40:03.644Z,-0.50
2022-11-27T07:41:03.230Z,-0.50
2022-11-27T07:42:16.687Z,-0.40
2022-11-27T07:43:03.253Z,-0.40
2022-11-27T07:44:03.342Z,-0.40
2022-11-27T07:45:03.307Z,-0.40
2022-11-27T07:46:03.296Z,-0.40
2022-11-27T07:47:03.264Z,-0.40
2022-11-27T07:48:03.273Z,-0.40
2022-11-27T07:49:03.279Z,-0.30
2022-11-27T07:50:03.379Z,-0.30
2022-11-27T07:51:03.331Z,-0.30
2022-11-27T07:52:03.300Z,-0.30
2022-11-27T07:53:03.310Z,-0.30
2022-11-27T07:54:03.437Z,-0.20
2022-11-27T07:55:03.336Z,-0.20
2022-11-27T07:56:03.429Z,-0.20
2022-11-27T07:57:03.430Z,-0.20
2022-11-27T07:58:03.481Z,-0.20
2022-11-27T07:59:03.478Z,-0.10
2022-11-27T08:00:03.452Z,-0.10
2022-11-27T08:01:03.432Z,-0.10
2022-11-27T08:02:03.264Z,-0.10
2022-11-27T08:03:03.168Z,0.00
2022-11-27T08:04:03.122Z,0.00
2022-11-27T08:05:05.848Z,0.00
2022-11-27T08:06:02.913Z,0.00
2022-11-27T08:07:02.806Z,0.10
2022-11-27T08:08:02.812Z,0.10
2022-11-27T08:09:02.723Z,0.10
2022-11-27T08:10:02.893Z,0.20
2022-11-27T08:11:02.996Z,0.20
2022-11-27T08:12:03.206Z,0.20
2022-11-27T08:13:03.311Z,0.30
2022-11-27T08:14:03.331Z,0.30
2022-11-27T08:15:03.279Z,0.30
2022-11-27T08:16:03.249Z,0.30
2022-11-27T08:17:03.201Z,0.40
2022-11-27T08:18:03.356Z,0.40
2022-11-27T08:19:03.233Z,0.40
2022-11-27T08:20:03.331Z,0.40
2022-11-27T08:21:03.269Z,0.50
2022-11-27T08:22:03.435Z,0.50
2022-11-27T08:23:03.487Z,0.50
2022-11-27T08:24:03.293Z,0.60
2022-11-27T08:25:03.194Z,0.60
2022-11-27T08:26:03.186Z,0.60
2022-11-27T08:27:03.252Z,0.70
2022-11-27T08:28:03.181Z,0.70
2022-11-27T08:29:03.119Z,0.70
2022-11-27T08:30:03.057Z,0.80
2022-11-27T08:31:02.937Z,0.80
2022-11-27T08:32:03.080Z,0.80
2022-11-27T08:33:03.289Z,0.80
2022-11-27T08:34:03.327Z,0.90
2022-11-27T08:35:03.308Z,0.90
2022-11-27T08:36:03.278Z,0.90
2022-11-27T08:37:03.106Z,0.90
2022-11-27T08:38:03.019Z,1.00
2022-11-27T08:39:02.956Z,1.00
2022-11-27T08:40:02.880Z,1.00
2022-11-27T08:41:02.727Z,1.10
2022-11-27T08:42:02.745Z,1.10
2022-11-27T08:43:02.927Z,1.10
2022-11-27T08:44:06.758Z,1.10
2022-11-27T08:45:02.760Z,1.10
2022-11-27T08:46:03.019Z,1.10
2022-11-27T08:47:02.895Z,1.20
2022-11-27T08:48:02.727Z,1.20
2022-11-27T08:49:02.750Z,1.20
2022-11-27T08:50:02.587Z,1.20
2022-11-27T08:51:03.606Z,1.30
2022-11-27T08:52:03.656Z,1.30
2022-11-27T08:53:03.537Z,1.30
2022-11-27T08:54:03.495Z,1.40
2022-11-27T08:55:02.614Z,1.40
2022-11-27T08:56:02.814Z,1.50
2022-11-27T08:57:02.665Z,1.50
2022-11-27T08:58:03.007Z,1.50
2022-11-27T08:59:02.961Z,1.60
2022-11-27T09:00:03.430Z,1.60
2022-11-27T09:01:03.528Z,1.70
2022-11-27T09:02:03.574Z,1.70
2022-11-27T09:03:03.570Z,1.70
2022-11-27T09:04:02.664Z,1.80
2022-11-27T09:05:03.533Z,1.80
2022-11-27T09:06:03.540Z,1.80
2022-11-27T09:07:03.554Z,1.90
2022-11-27T09:08:03.559Z,1.90
2022-11-27T09:09:03.561Z,1.90
2022-11-27T09:10:03.551Z,2.00
2022-11-27T09:11:03.458Z,2.00
2022-11-27T09:12:03.428Z,2.00
2022-11-27T09:13:03.432Z,2.10
2022-11-27T09:14:03.353Z,2.10
2022-11-27T09:15:03.303Z,2.20
2022-11-27T09:16:03.378Z,2.20
2022-11-27T09:17:03.354Z,2.20
2022-11-27T09:19:03.239Z,2.30
2022-11-27T09:20:03.234Z,2.40
2022-11-27T09:21:03.157Z,2.40
2022-11-27T09:22:03.085Z,2.50
2022-11-27T09:23:03.197Z,2.50
2022-11-27T09:24:03.203Z,2.50
2022-11-27T09:25:03.298Z,2.60
2022-11-27T09:26:03.521Z,2.60
2022-11-27T09:27:03.530Z,2.70
2022-11-27T09:28:03.460Z,2.70
2022-11-27T09:29:03.623Z,2.70
2022-11-27T09:30:03.463Z,2.80
2022-11-27T09:31:03.381Z,2.80
2022-11-27T09:32:03.502Z,2.90
2022-11-27T09:33:02.783Z,2.90
2022-11-27T09:34:02.798Z,3.00
2022-11-27T09:35:02.912Z,3.00
2022-11-27T09:36:02.956Z,3.00
2022-11-27T09:37:02.976Z,3.10
2022-11-27T09:38:02.986Z,3.10
2022-11-27T09:39:02.839Z,3.10
2022-11-27T09:40:02.865Z,3.20
2022-11-27T09:41:03.210Z,3.20
2022-11-27T09:42:02.976Z,3.20
2022-11-27T09:43:02.979Z,3.30
2022-11-27T09:44:03.170Z,3.30
2022-11-27T09:45:03.296Z,3.30
2022-11-27T09:46:03.242Z,3.40
2022-11-27T09:47:03.392Z,3.40
2022-11-27T09:48:03.369Z,3.40
2022-11-27T09:49:03.236Z,3.50
2022-11-27T09:50:03.277Z,3.50
2022-11-27T09:51:03.151Z,3.50
2022-11-27T09:52:03.298Z,3.60
2022-11-27T09:53:03.493Z,3.60
2022-11-27T09:54:03.350Z,3.60
2022-11-27T09:55:03.202Z,3.70
2022-11-27T09:56:03.213Z,3.70
2022-11-27T09:57:03.330Z,3.80
2022-11-27T09:58:03.541Z,3.80
2022-11-27T09:59:03.578Z,3.80
2022-11-27T10:00:02.726Z,3.90
2022-11-27T10:01:02.746Z,3.90
2022-11-27T10:02:02.798Z,4.00
2022-11-27T10:03:03.750Z,4.00
2022-11-27T10:04:03.513Z,4.00
2022-11-27T10:05:13.675Z,4.10
2022-11-27T10:06:03.389Z,4.10
2022-11-27T10:07:03.317Z,4.20
2022-11-27T10:08:06.558Z,4.20
2022-11-27T10:09:03.085Z,4.20
2022-11-27T10:10:03.089Z,4.30
2022-11-27T10:11:03.187Z,4.30
2022-11-27T10:12:03.161Z,4.40
2022-11-27T10:13:03.307Z,4.40
2022-11-27T10:14:03.408Z,4.40
2022-11-27T10:15:03.321Z,4.50
2022-11-27T10:16:03.257Z,4.50
2022-11-27T10:17:03.489Z,4.60
2022-11-27T10:18:03.315Z,4.60
2022-11-27T10:19:03.318Z,4.70
2022-11-27T10:20:03.529Z,4.70
2022-11-27T10:21:03.490Z,4.70
2022-11-27T10:22:03.605Z,4.80
2022-11-27T10:23:03.426Z,4.80
2022-11-27T10:24:03.478Z,4.80
2022-11-27T10:25:03.355Z,4.80
2022-11-27T10:26:03.385Z,4.90
2022-11-27T10:27:03.438Z,4.90
2022-11-27T10:28:03.524Z,4.90
2022-11-27T10:29:03.765Z,5.00
2022-11-27T10:30:03.525Z,5.00
2022-11-27T10:31:02.723Z,5.00
2022-11-27T10:32:02.932Z,5.10
2022-11-27T10:33:02.782Z,5.10
2022-11-27T10:34:02.625Z,5.10
2022-11-27T10:35:03.583Z,5.20
2022-11-27T10:36:03.025Z,5.20
2022-11-27T10:37:03.385Z,5.30
2022-11-27T10:38:06.691Z,5.30
2022-11-27T10:39:03.511Z,5.30
2022-11-27T10:40:03.526Z,5.30
2022-11-27T10:41:03.581Z,5.40
2022-11-27T10:42:03.517Z,5.40
2022-11-27T10:43:03.535Z,5.50
2022-11-27T10:44:03.511Z,5.50
2022-11-27T10:45:03.487Z,5.50
2022-11-27T10:46:03.692Z,5.50
2022-11-27T10:47:03.556Z,5.60
2022-11-27T10:48:03.368Z,5.60
2022-11-27T10:49:03.318Z,5.60
2022-11-27T10:50:03.190Z,5.60
2022-11-27T10:51:03.250Z,5.70
2022-11-27T10:52:03.267Z,5.70
2022-11-27T10:53:03.194Z,5.70
2022-11-27T10:54:03.141Z,5.80
2022-11-27T10:55:03.332Z,5.80
2022-11-27T10:56:03.183Z,5.80
2022-11-27T10:57:03.162Z,5.80
2022-11-27T10:58:03.050Z,5.90
2022-11-27T10:59:03.200Z,5.90
2022-11-27T11:00:03.154Z,5.90
2022-11-27T11:01:03.217Z,5.90
2022-11-27T11:02:03.230Z,6.00
2022-11-27T11:03:03.331Z,6.00
2022-11-27T11:04:14.190Z,6.00
2022-11-27T11:05:31.058Z,6.00
2022-11-27T11:06:21.098Z,6.10
2022-11-27T11:07:03.320Z,6.10
2022-11-27T11:08:03.297Z,6.10
2022-11-27T11:09:03.246Z,6.10
2022-11-27T11:10:03.193Z,6.20
2022-11-27T11:11:03.290Z,6.20
2022-11-27T11:12:03.208Z,6.20
2022-11-27T11:13:03.421Z,6.20
2022-11-27T11:14:03.413Z,6.20
2022-11-27T11:15:03.306Z,6.20
2022-11-27T11:16:03.439Z,6.30
2022-11-27T11:17:03.483Z,6.30
2022-11-27T11:18:03.536Z,6.30
2022-11-27T11:19:02.770Z,6.40
2022-11-27T11:20:02.750Z,6.40
2022-11-27T11:21:02.913Z,6.40
2022-11-27T11:22:03.076Z,6.40
2022-11-27T11:23:03.131Z,6.50
2022-11-27T11:24:03.200Z,6.50
2022-11-27T11:25:03.342Z,6.50
2022-11-27T11:26:03.393Z,6.50
2022-11-27T11:27:03.556Z,6.50
2022-11-27T11:28:03.728Z,6.50
2022-11-27T11:29:03.592Z,6.60
2022-11-27T11:30:03.509Z,6.60
2022-11-27T11:31:03.532Z,6.60
2022-11-27T11:32:03.589Z,6.60
2022-11-27T11:33:03.501Z,6.60
2022-11-27T11:34:03.573Z,6.60
2022-11-27T11:35:02.734Z,6.70
2022-11-27T11:36:02.961Z,6.70
2022-11-27T11:37:02.893Z,6.70
2022-11-27T11:38:03.084Z,6.70
2022-11-27T11:39:03.292Z,6.70
2022-11-27T11:40:12.040Z,6.70
2022-11-27T11:41:03.249Z,6.70
2022-11-27T11:42:03.364Z,6.80
2022-11-27T11:43:03.370Z,6.80
2022-11-27T11:44:03.424Z,6.80
2022-11-27T11:45:03.430Z,6.80
2022-11-27T11:46:03.634Z,6.80
2022-11-27T11:47:03.545Z,6.80
2022-11-27T11:48:03.654Z,6.80
2022-11-27T11:49:03.596Z,6.90
2022-11-27T11:50:03.651Z,6.90
2022-11-27T11:51:02.553Z,6.90
2022-11-27T11:52:02.992Z,6.90
2022-11-27T11:53:03.047Z,6.90
2022-11-27T11:54:03.113Z,6.90
2022-11-27T11:55:03.268Z,6.90
2022-11-27T11:56:03.503Z,7.00
2022-11-27T11:57:03.520Z,7.00
2022-11-27T11:58:03.387Z,7.00
2022-11-27T11:59:03.421Z,7.00
2022-11-27T12:00:03.459Z,7.00
2022-11-27T12:01:26.308Z,7.00
2022-11-27T12:02:02.613Z,7.00
2022-11-27T12:03:02.741Z,7.00
2022-11-27T12:04:03.106Z,7.10
2022-11-27T12:05:03.200Z,7.10
2022-11-27T12:06:03.116Z,7.10
2022-11-27T12:07:03.218Z,7.10
2022-11-27T12:08:03.353Z,7.10
2022-11-27T12:09:03.398Z,7.10
2022-11-27T12:10:03.420Z,7.10
2022-11-27T12:11:03.503Z,7.10
2022-11-27T12:12:03.423Z,7.10
2022-11-27T12:13:03.698Z,7.10
2022-11-27T12:14:02.602Z,7.10
2022-11-27T12:15:07.928Z,7.10
2022-11-27T12:16:03.105Z,7.10
2022-11-27T12:17:03.259Z,7.10
2022-11-27T12:18:03.293Z,7.10
2022-11-27T12:19:03.306Z,7.10
2022-11-27T12:20:03.320Z,7.10
2022-11-27T12:21:03.495Z,7.20
2022-11-27T12:22:03.463Z,7.10
2022-11-27T12:23:03.484Z,7.10
2022-11-27T12:24:02.585Z,7.10
2022-11-27T12:25:02.853Z,7.20
2022-11-27T12:26:03.010Z,7.20
2022-11-27T12:27:03.224Z,7.20
2022-11-27T12:28:03.232Z,7.20
2022-11-27T12:29:03.373Z,7.20
2022-11-27T12:30:03.432Z,7.20
2022-11-27T12:31:03.968Z,7.20
2022-11-27T12:32:02.858Z,7.20
2022-11-27T12:33:02.834Z,7.20
2022-11-27T12:34:03.039Z,7.20
2022-11-27T12:35:03.271Z,7.20
2022-11-27T12:36:03.236Z,7.20
2022-11-27T12:37:03.457Z,7.20
2022-11-27T12:38:03.446Z,7.20
2022-11-27T12:39:03.605Z,7.20
2022-11-27T12:40:03.597Z,7.20
2022-11-27T12:41:03.590Z,7.20
2022-11-27T12:42:03.556Z,7.20
2022-11-27T12:43:02.633Z,7.20
2022-11-27T12:44:02.970Z,7.10
2022-11-27T12:45:02.926Z,7.10
2022-11-27T12:46:03.460Z,7.10
2022-11-27T12:47:03.190Z,7.10
2022-11-27T12:48:03.255Z,7.10
2022-11-27T12:49:03.481Z,7.10
2022-11-27T12:50:03.513Z,7.10
2022-11-27T12:51:03.540Z,7.10
2022-11-27T12:52:02.682Z,7.10
2022-11-27T12:53:02.828Z,7.10
2022-11-27T12:54:02.755Z,7.10
2022-11-27T12:55:02.673Z,7.10
2022-11-27T12:56:02.603Z,7.10
2022-11-27T12:57:03.557Z,7.10
2022-11-27T12:58:03.589Z,7.10
2022-11-27T12:59:03.583Z,7.10
2022-11-27T13:00:03.402Z,7.10
2022-11-27T13:01:03.496Z,7.00
2022-11-27T13:02:03.498Z,7.00
2022-11-27T13:03:03.339Z,7.00
2022-11-27T13:04:03.243Z,7.00
2022-11-27T13:05:03.251Z,7.00
2022-11-27T13:06:03.165Z,7.00
2022-11-27T13:07:03.227Z,7.00
2022-11-27T13:08:03.289Z,7.00
2022-11-27T13:09:03.139Z,7.00
2022-11-27T13:10:02.929Z,7.00
2022-11-27T13:11:02.887Z,7.00